sensor_id;sensor_type;location;lat;lon;timestamp;P1;durP1;ratioP1;P2;durP2;ratioP2
58784;SDS011;44557;51.862;19.378;2023-08-17T00:00:05;9.70;;;5.30;;
58784;SDS011;44557;51.862;19.378;2023-08-17T00:02:31;9.10;;;5.10;;
58784;SDS011;44557;51.862;19.378;2023-08-17T00:04:34;8.20;;;5.50;;
58784;SDS011;44557;51.862;19.378;2023-08-17T00:06:36;9.00;;;5.30;;
58784;SDS011;44557;51.862;19.378;2023-08-17T00:08:38;7.70;;;5.00;;
58784;SDS011;44557;51.862;19.378;2023-08-17T00:10:40;7.10;;;5.10;;
58784;SDS011;44557;51.862;19.378;2023-08-17T00:12:42;9.60;;;5.30;;
58784;SDS011;44557;51.862;19.378;2023-08-17T00:14:45;11.20;;;5.70;;
58784;SDS011;44557;51.862;19.378;2023-08-17T00:16:49;8.00;;;5.70;;
58784;SDS011;44557;51.862;19.378;2023-08-17T00:18:51;8.60;;;5.30;;
58784;SDS011;44557;51.862;19.378;2023-08-17T00:20:53;10.40;;;5.20;;
58784;SDS011;44557;51.862;19.378;2023-08-17T00:22:55;8.50;;;5.10;;
58784;SDS011;44557;51.862;19.378;2023-08-17T00:24:57;7.80;;;5.00;;
58784;SDS011;44557;51.862;19.378;2023-08-17T00:27:00;8.40;;;5.30;;
58784;SDS011;44557;51.862;19.378;2023-08-17T00:29:03;11.50;;;5.60;;
58784;SDS011;44557;51.862;19.378;2023-08-17T00:31:06;8.60;;;5.00;;
58784;SDS011;44557;51.862;19.378;2023-08-17T00:33:08;8.50;;;4.60;;
58784;SDS011;44557;51.862;19.378;2023-08-17T00:35:10;9.80;;;5.10;;
58784;SDS011;44557;51.862;19.378;2023-08-17T00:37:11;9.20;;;5.20;;
58784;SDS011;44557;51.862;19.378;2023-08-17T00:39:14;10.20;;;5.30;;
58784;SDS011;44557;51.862;19.378;2023-08-17T00:41:16;8.90;;;5.20;;
58784;SDS011;44557;51.862;19.378;2023-08-17T00:43:18;9.60;;;5.00;;
58784;SDS011;44557;51.862;19.378;2023-08-17T00:45:21;12.90;;;5.00;;
58784;SDS011;44557;51.862;19.378;2023-08-17T00:47:25;8.30;;;5.00;;
58784;SDS011;44557;51.862;19.378;2023-08-17T00:49:28;9.00;;;4.80;;
58784;SDS011;44557;51.862;19.378;2023-08-17T00:51:30;8.20;;;4.60;;
58784;SDS011;44557;51.862;19.378;2023-08-17T00:53:33;8.20;;;4.60;;
58784;SDS011;44557;51.862;19.378;2023-08-17T00:55:35;8.90;;;4.50;;
58784;SDS011;44557;51.862;19.378;2023-08-17T00:57:37;8.90;;;4.70;;
58784;SDS011;44557;51.862;19.378;2023-08-17T00:59:40;10.50;;;4.50;;
58784;SDS011;44557;51.862;19.378;2023-08-17T01:01:42;8.20;;;4.60;;
58784;SDS011;44557;51.862;19.378;2023-08-17T01:03:44;7.10;;;4.50;;
58784;SDS011;44557;51.862;19.378;2023-08-17T01:05:46;7.60;;;4.50;;
58784;SDS011;44557;51.862;19.378;2023-08-17T01:07:49;7.10;;;4.60;;
58784;SDS011;44557;51.862;19.378;2023-08-17T01:09:52;9.00;;;4.90;;
58784;SDS011;44557;51.862;19.378;2023-08-17T01:12:08;14.10;;;4.90;;
58784;SDS011;44557;51.862;19.378;2023-08-17T01:14:34;8.90;;;4.80;;
58784;SDS011;44557;51.862;19.378;2023-08-17T01:16:47;8.10;;;4.90;;
58784;SDS011;44557;51.862;19.378;2023-08-17T01:18:52;7.60;;;4.20;;
58784;SDS011;44557;51.862;19.378;2023-08-17T01:21:01;8.50;;;4.70;;
58784;SDS011;44557;51.862;19.378;2023-08-17T01:23:06;8.70;;;4.60;;
58784;SDS011;44557;51.862;19.378;2023-08-17T01:25:09;9.80;;;4.40;;
58784;SDS011;44557;51.862;19.378;2023-08-17T01:27:11;8.20;;;4.50;;
58784;SDS011;44557;51.862;19.378;2023-08-17T01:29:16;9.70;;;4.80;;
58784;SDS011;44557;51.862;19.378;2023-08-17T01:31:19;7.00;;;4.60;;
58784;SDS011;44557;51.862;19.378;2023-08-17T01:33:43;9.40;;;4.80;;
58784;SDS011;44557;51.862;19.378;2023-08-17T01:36:11;9.00;;;4.70;;
58784;SDS011;44557;51.862;19.378;2023-08-17T01:38:21;8.50;;;4.90;;
58784;SDS011;44557;51.862;19.378;2023-08-17T01:40:27;10.60;;;5.00;;
58784;SDS011;44557;51.862;19.378;2023-08-17T01:42:34;8.80;;;5.30;;
58784;SDS011;44557;51.862;19.378;2023-08-17T01:44:39;7.90;;;5.10;;
58784;SDS011;44557;51.862;19.378;2023-08-17T01:46:41;8.00;;;5.20;;
58784;SDS011;44557;51.862;19.378;2023-08-17T01:48:45;7.00;;;4.90;;
58784;SDS011;44557;51.862;19.378;2023-08-17T01:50:47;8.50;;;4.90;;
58784;SDS011;44557;51.862;19.378;2023-08-17T01:52:49;10.90;;;5.30;;
58784;SDS011;44557;51.862;19.378;2023-08-17T01:54:52;8.30;;;5.30;;
58784;SDS011;44557;51.862;19.378;2023-08-17T01:56:54;9.30;;;5.30;;
58784;SDS011;44557;51.862;19.378;2023-08-17T01:58:56;8.80;;;5.60;;
58784;SDS011;44557;51.862;19.378;2023-08-17T02:00:58;8.90;;;5.10;;
58784;SDS011;44557;51.862;19.378;2023-08-17T02:02:59;9.40;;;5.50;;
58784;SDS011;44557;51.862;19.378;2023-08-17T02:05:02;10.80;;;5.20;;
58784;SDS011;44557;51.862;19.378;2023-08-17T02:07:04;9.50;;;5.60;;
58784;SDS011;44557;51.862;19.378;2023-08-17T02:09:06;9.20;;;6.00;;
58784;SDS011;44557;51.862;19.378;2023-08-17T02:11:08;9.60;;;5.70;;
58784;SDS011;44557;51.862;19.378;2023-08-17T02:13:11;10.90;;;6.10;;
58784;SDS011;44557;51.862;19.378;2023-08-17T02:15:14;9.30;;;5.50;;
58784;SDS011;44557;51.862;19.378;2023-08-17T02:17:16;13.10;;;6.70;;
58784;SDS011;44557;51.862;19.378;2023-08-17T02:19:20;8.80;;;6.40;;
58784;SDS011;44557;51.862;19.378;2023-08-17T02:21:22;10.10;;;6.70;;
58784;SDS011;44557;51.862;19.378;2023-08-17T02:23:23;11.40;;;6.80;;
58784;SDS011;44557;51.862;19.378;2023-08-17T02:25:26;12.70;;;7.70;;
58784;SDS011;44557;51.862;19.378;2023-08-17T02:27:35;10.40;;;7.30;;
58784;SDS011;44557;51.862;19.378;2023-08-17T02:29:37;13.50;;;7.50;;
58784;SDS011;44557;51.862;19.378;2023-08-17T02:31:39;10.40;;;7.30;;
58784;SDS011;44557;51.862;19.378;2023-08-17T02:33:41;11.20;;;7.70;;
58784;SDS011;44557;51.862;19.378;2023-08-17T02:35:47;12.90;;;7.90;;
58784;SDS011;44557;51.862;19.378;2023-08-17T02:37:51;12.70;;;7.30;;
58784;SDS011;44557;51.862;19.378;2023-08-17T02:39:52;11.50;;;8.00;;
58784;SDS011;44557;51.862;19.378;2023-08-17T02:41:54;12.00;;;7.90;;
58784;SDS011;44557;51.862;19.378;2023-08-17T02:43:56;14.50;;;8.20;;
58784;SDS011;44557;51.862;19.378;2023-08-17T02:45:58;12.40;;;7.60;;
58784;SDS011;44557;51.862;19.378;2023-08-17T02:48:00;12.00;;;8.50;;
58784;SDS011;44557;51.862;19.378;2023-08-17T02:50:03;11.00;;;7.80;;
58784;SDS011;44557;51.862;19.378;2023-08-17T02:52:05;9.90;;;7.30;;
58784;SDS011;44557;51.862;19.378;2023-08-17T02:54:06;10.80;;;6.50;;
58784;SDS011;44557;51.862;19.378;2023-08-17T02:56:08;10.00;;;7.10;;
58784;SDS011;44557;51.862;19.378;2023-08-17T02:58:13;10.10;;;6.70;;
58784;SDS011;44557;51.862;19.378;2023-08-17T03:00:15;10.40;;;6.40;;
58784;SDS011;44557;51.862;19.378;2023-08-17T03:02:16;10.50;;;6.60;;
58784;SDS011;44557;51.862;19.378;2023-08-17T03:04:19;11.70;;;6.70;;
58784;SDS011;44557;51.862;19.378;2023-08-17T03:06:21;11.50;;;6.60;;
58784;SDS011;44557;51.862;19.378;2023-08-17T03:08:22;10.30;;;6.30;;
58784;SDS011;44557;51.862;19.378;2023-08-17T03:10:24;9.80;;;6.30;;
58784;SDS011;44557;51.862;19.378;2023-08-17T03:12:26;10.30;;;6.70;;
58784;SDS011;44557;51.862;19.378;2023-08-17T03:14:28;13.40;;;7.70;;
58784;SDS011;44557;51.862;19.378;2023-08-17T03:16:30;12.60;;;7.40;;
58784;SDS011;44557;51.862;19.378;2023-08-17T03:18:32;9.90;;;6.90;;
58784;SDS011;44557;51.862;19.378;2023-08-17T03:20:34;11.90;;;8.00;;
58784;SDS011;44557;51.862;19.378;2023-08-17T03:22:36;12.20;;;7.10;;
58784;SDS011;44557;51.862;19.378;2023-08-17T03:24:38;12.70;;;7.20;;
58784;SDS011;44557;51.862;19.378;2023-08-17T03:26:39;12.30;;;7.20;;
58784;SDS011;44557;51.862;19.378;2023-08-17T03:28:41;12.50;;;7.10;;
58784;SDS011;44557;51.862;19.378;2023-08-17T03:30:43;11.20;;;7.20;;
58784;SDS011;44557;51.862;19.378;2023-08-17T03:32:46;11.40;;;7.00;;
58784;SDS011;44557;51.862;19.378;2023-08-17T03:34:48;10.10;;;8.00;;
58784;SDS011;44557;51.862;19.378;2023-08-17T03:36:50;10.40;;;7.50;;
58784;SDS011;44557;51.862;19.378;2023-08-17T03:38:52;11.50;;;7.70;;
58784;SDS011;44557;51.862;19.378;2023-08-17T03:40:55;10.90;;;7.40;;
58784;SDS011;44557;51.862;19.378;2023-08-17T03:42:56;11.50;;;8.40;;
58784;SDS011;44557;51.862;19.378;2023-08-17T03:44:59;12.40;;;7.80;;
58784;SDS011;44557;51.862;19.378;2023-08-17T03:47:00;13.30;;;7.10;;
58784;SDS011;44557;51.862;19.378;2023-08-17T03:49:02;12.00;;;7.30;;
58784;SDS011;44557;51.862;19.378;2023-08-17T03:51:04;12.40;;;7.20;;
58784;SDS011;44557;51.862;19.378;2023-08-17T03:53:06;9.90;;;6.80;;
58784;SDS011;44557;51.862;19.378;2023-08-17T03:55:09;10.40;;;7.10;;
58784;SDS011;44557;51.862;19.378;2023-08-17T03:57:12;9.40;;;6.50;;
58784;SDS011;44557;51.862;19.378;2023-08-17T03:59:13;11.00;;;7.70;;
58784;SDS011;44557;51.862;19.378;2023-08-17T04:01:16;11.40;;;6.90;;
58784;SDS011;44557;51.862;19.378;2023-08-17T04:03:19;9.60;;;6.50;;
58784;SDS011;44557;51.862;19.378;2023-08-17T04:05:21;11.00;;;6.50;;
58784;SDS011;44557;51.862;19.378;2023-08-17T04:07:23;10.40;;;6.40;;
58784;SDS011;44557;51.862;19.378;2023-08-17T04:09:25;14.90;;;6.90;;
58784;SDS011;44557;51.862;19.378;2023-08-17T04:11:27;9.70;;;6.90;;
58784;SDS011;44557;51.862;19.378;2023-08-17T04:13:30;12.30;;;7.50;;
58784;SDS011;44557;51.862;19.378;2023-08-17T04:15:32;12.30;;;7.00;;
58784;SDS011;44557;51.862;19.378;2023-08-17T04:17:34;11.60;;;6.80;;
58784;SDS011;44557;51.862;19.378;2023-08-17T04:19:36;9.60;;;6.70;;
58784;SDS011;44557;51.862;19.378;2023-08-17T04:21:38;9.60;;;6.40;;
58784;SDS011;44557;51.862;19.378;2023-08-17T04:23:40;11.10;;;6.90;;
58784;SDS011;44557;51.862;19.378;2023-08-17T04:25:43;9.50;;;6.70;;
58784;SDS011;44557;51.862;19.378;2023-08-17T04:27:46;12.40;;;6.70;;
58784;SDS011;44557;51.862;19.378;2023-08-17T04:29:48;8.80;;;6.50;;
58784;SDS011;44557;51.862;19.378;2023-08-17T04:31:50;9.90;;;6.40;;
58784;SDS011;44557;51.862;19.378;2023-08-17T04:33:52;14.00;;;6.80;;
58784;SDS011;44557;51.862;19.378;2023-08-17T04:35:54;10.20;;;6.50;;
58784;SDS011;44557;51.862;19.378;2023-08-17T04:37:56;9.90;;;6.90;;
58784;SDS011;44557;51.862;19.378;2023-08-17T04:39:58;11.70;;;7.30;;
58784;SDS011;44557;51.862;19.378;2023-08-17T04:42:00;10.10;;;6.60;;
58784;SDS011;44557;51.862;19.378;2023-08-17T04:44:02;9.60;;;7.00;;
58784;SDS011;44557;51.862;19.378;2023-08-17T04:46:04;11.60;;;7.40;;
58784;SDS011;44557;51.862;19.378;2023-08-17T04:48:06;13.00;;;7.30;;
58784;SDS011;44557;51.862;19.378;2023-08-17T04:50:08;12.10;;;7.30;;
58784;SDS011;44557;51.862;19.378;2023-08-17T04:52:10;12.80;;;7.60;;
58784;SDS011;44557;51.862;19.378;2023-08-17T04:54:12;12.40;;;8.00;;
58784;SDS011;44557;51.862;19.378;2023-08-17T04:56:15;13.20;;;8.40;;
58784;SDS011;44557;51.862;19.378;2023-08-17T04:58:17;14.60;;;7.60;;
58784;SDS011;44557;51.862;19.378;2023-08-17T05:00:19;11.10;;;7.20;;
58784;SDS011;44557;51.862;19.378;2023-08-17T05:02:26;15.70;;;7.40;;
58784;SDS011;44557;51.862;19.378;2023-08-17T05:04:29;11.00;;;7.40;;
58784;SDS011;44557;51.862;19.378;2023-08-17T05:06:32;11.50;;;7.10;;
58784;SDS011;44557;51.862;19.378;2023-08-17T05:08:34;11.40;;;7.70;;
58784;SDS011;44557;51.862;19.378;2023-08-17T05:10:36;15.40;;;7.80;;
58784;SDS011;44557;51.862;19.378;2023-08-17T05:12:47;11.20;;;7.20;;
58784;SDS011;44557;51.862;19.378;2023-08-17T05:14:49;11.80;;;7.30;;
58784;SDS011;44557;51.862;19.378;2023-08-17T05:16:50;14.90;;;8.20;;
58784;SDS011;44557;51.862;19.378;2023-08-17T05:18:52;13.50;;;7.90;;
58784;SDS011;44557;51.862;19.378;2023-08-17T05:20:55;11.80;;;7.60;;
58784;SDS011;44557;51.862;19.378;2023-08-17T05:22:57;11.30;;;7.20;;
58784;SDS011;44557;51.862;19.378;2023-08-17T05:24:59;14.00;;;8.40;;
58784;SDS011;44557;51.862;19.378;2023-08-17T05:27:01;12.80;;;8.10;;
58784;SDS011;44557;51.862;19.378;2023-08-17T05:29:03;11.70;;;8.30;;
58784;SDS011;44557;51.862;19.378;2023-08-17T05:31:06;15.60;;;8.30;;
58784;SDS011;44557;51.862;19.378;2023-08-17T05:33:08;13.40;;;7.70;;
58784;SDS011;44557;51.862;19.378;2023-08-17T05:35:10;11.70;;;8.40;;
58784;SDS011;44557;51.862;19.378;2023-08-17T05:37:13;13.40;;;8.10;;
58784;SDS011;44557;51.862;19.378;2023-08-17T05:39:16;10.00;;;8.00;;
58784;SDS011;44557;51.862;19.378;2023-08-17T05:41:18;12.80;;;9.60;;
58784;SDS011;44557;51.862;19.378;2023-08-17T05:43:20;12.60;;;8.40;;
58784;SDS011;44557;51.862;19.378;2023-08-17T05:45:22;13.60;;;7.80;;
58784;SDS011;44557;51.862;19.378;2023-08-17T05:47:29;19.10;;;8.40;;
58784;SDS011;44557;51.862;19.378;2023-08-17T05:49:30;14.80;;;7.90;;
58784;SDS011;44557;51.862;19.378;2023-08-17T05:51:33;11.60;;;8.30;;
58784;SDS011;44557;51.862;19.378;2023-08-17T05:53:35;14.60;;;9.00;;
58784;SDS011;44557;51.862;19.378;2023-08-17T05:55:37;15.20;;;9.80;;
58784;SDS011;44557;51.862;19.378;2023-08-17T05:57:39;13.70;;;9.30;;
58784;SDS011;44557;51.862;19.378;2023-08-17T05:59:41;17.30;;;9.60;;
58784;SDS011;44557;51.862;19.378;2023-08-17T06:01:43;18.40;;;9.40;;
58784;SDS011;44557;51.862;19.378;2023-08-17T06:06:22;13.90;;;8.00;;
58784;SDS011;44557;51.862;19.378;2023-08-17T06:08:24;13.00;;;8.20;;
58784;SDS011;44557;51.862;19.378;2023-08-17T06:10:26;12.40;;;8.10;;
58784;SDS011;44557;51.862;19.378;2023-08-17T06:12:27;13.60;;;7.90;;
58784;SDS011;44557;51.862;19.378;2023-08-17T06:14:29;12.80;;;8.20;;
58784;SDS011;44557;51.862;19.378;2023-08-17T06:16:31;14.20;;;8.20;;
58784;SDS011;44557;51.862;19.378;2023-08-17T06:18:33;12.80;;;8.20;;
58784;SDS011;44557;51.862;19.378;2023-08-17T06:20:35;13.30;;;8.20;;
58784;SDS011;44557;51.862;19.378;2023-08-17T06:22:38;10.60;;;8.20;;
58784;SDS011;44557;51.862;19.378;2023-08-17T06:24:40;14.60;;;8.10;;
58784;SDS011;44557;51.862;19.378;2023-08-17T06:26:41;11.60;;;7.60;;
58784;SDS011;44557;51.862;19.378;2023-08-17T06:28:45;11.70;;;8.20;;
58784;SDS011;44557;51.862;19.378;2023-08-17T06:30:46;13.00;;;8.30;;
58784;SDS011;44557;51.862;19.378;2023-08-17T06:32:50;11.80;;;7.60;;
58784;SDS011;44557;51.862;19.378;2023-08-17T06:34:52;12.20;;;7.50;;
58784;SDS011;44557;51.862;19.378;2023-08-17T06:37:02;11.90;;;7.90;;
58784;SDS011;44557;51.862;19.378;2023-08-17T06:39:04;13.30;;;8.10;;
58784;SDS011;44557;51.862;19.378;2023-08-17T06:41:06;13.00;;;8.20;;
58784;SDS011;44557;51.862;19.378;2023-08-17T06:43:08;11.30;;;7.70;;
58784;SDS011;44557;51.862;19.378;2023-08-17T06:45:12;12.20;;;7.70;;
58784;SDS011;44557;51.862;19.378;2023-08-17T06:47:14;12.00;;;8.60;;
58784;SDS011;44557;51.862;19.378;2023-08-17T06:49:16;11.90;;;8.40;;
58784;SDS011;44557;51.862;19.378;2023-08-17T06:51:19;10.60;;;8.00;;
58784;SDS011;44557;51.862;19.378;2023-08-17T06:53:20;14.20;;;7.60;;
58784;SDS011;44557;51.862;19.378;2023-08-17T06:55:22;10.60;;;8.40;;
58784;SDS011;44557;51.862;19.378;2023-08-17T06:57:24;9.90;;;7.30;;
58784;SDS011;44557;51.862;19.378;2023-08-17T06:59:25;12.20;;;7.60;;
58784;SDS011;44557;51.862;19.378;2023-08-17T07:01:28;10.20;;;7.70;;
58784;SDS011;44557;51.862;19.378;2023-08-17T07:03:29;11.10;;;7.10;;
58784;SDS011;44557;51.862;19.378;2023-08-17T07:05:31;14.00;;;8.10;;
58784;SDS011;44557;51.862;19.378;2023-08-17T07:07:33;12.50;;;7.80;;
58784;SDS011;44557;51.862;19.378;2023-08-17T07:09:34;11.20;;;7.10;;
58784;SDS011;44557;51.862;19.378;2023-08-17T07:11:37;10.20;;;7.30;;
58784;SDS011;44557;51.862;19.378;2023-08-17T07:13:40;11.70;;;7.30;;
58784;SDS011;44557;51.862;19.378;2023-08-17T07:15:41;11.50;;;7.10;;
58784;SDS011;44557;51.862;19.378;2023-08-17T07:17:43;13.10;;;7.90;;
58784;SDS011;44557;51.862;19.378;2023-08-17T07:19:45;9.60;;;7.10;;
58784;SDS011;44557;51.862;19.378;2023-08-17T07:21:47;11.50;;;7.60;;
58784;SDS011;44557;51.862;19.378;2023-08-17T07:23:50;10.70;;;7.70;;
58784;SDS011;44557;51.862;19.378;2023-08-17T07:25:52;10.30;;;6.70;;
58784;SDS011;44557;51.862;19.378;2023-08-17T07:27:56;12.70;;;7.60;;
58784;SDS011;44557;51.862;19.378;2023-08-17T07:29:58;9.00;;;6.80;;
58784;SDS011;44557;51.862;19.378;2023-08-17T07:32:01;8.60;;;7.00;;
58784;SDS011;44557;51.862;19.378;2023-08-17T07:34:05;9.00;;;7.10;;
58784;SDS011;44557;51.862;19.378;2023-08-17T07:36:07;10.60;;;6.90;;
58784;SDS011;44557;51.862;19.378;2023-08-17T07:38:10;9.40;;;6.60;;
58784;SDS011;44557;51.862;19.378;2023-08-17T07:40:12;10.70;;;7.20;;
58784;SDS011;44557;51.862;19.378;2023-08-17T07:42:13;10.60;;;6.80;;
58784;SDS011;44557;51.862;19.378;2023-08-17T07:44:15;10.30;;;7.50;;
58784;SDS011;44557;51.862;19.378;2023-08-17T07:46:17;13.10;;;7.50;;
58784;SDS011;44557;51.862;19.378;2023-08-17T07:48:19;13.80;;;7.40;;
58784;SDS011;44557;51.862;19.378;2023-08-17T07:50:21;9.00;;;7.20;;
58784;SDS011;44557;51.862;19.378;2023-08-17T07:52:23;10.80;;;7.50;;
58784;SDS011;44557;51.862;19.378;2023-08-17T07:54:25;11.70;;;7.60;;
58784;SDS011;44557;51.862;19.378;2023-08-17T07:56:27;9.10;;;6.80;;
58784;SDS011;44557;51.862;19.378;2023-08-17T07:58:28;9.70;;;6.70;;
58784;SDS011;44557;51.862;19.378;2023-08-17T08:00:30;10.20;;;7.40;;
58784;SDS011;44557;51.862;19.378;2023-08-17T08:02:33;11.00;;;7.70;;
58784;SDS011;44557;51.862;19.378;2023-08-17T08:04:35;8.60;;;7.20;;
58784;SDS011;44557;51.862;19.378;2023-08-17T08:06:39;12.40;;;7.50;;
58784;SDS011;44557;51.862;19.378;2023-08-17T08:08:41;11.70;;;7.50;;
58784;SDS011;44557;51.862;19.378;2023-08-17T08:10:43;8.70;;;7.30;;
58784;SDS011;44557;51.862;19.378;2023-08-17T08:12:45;9.50;;;7.30;;
58784;SDS011;44557;51.862;19.378;2023-08-17T08:14:47;11.80;;;7.90;;
58784;SDS011;44557;51.862;19.378;2023-08-17T08:16:50;9.50;;;7.50;;
58784;SDS011;44557;51.862;19.378;2023-08-17T08:18:52;9.20;;;7.60;;
58784;SDS011;44557;51.862;19.378;2023-08-17T08:20:54;10.10;;;7.30;;
58784;SDS011;44557;51.862;19.378;2023-08-17T08:22:56;10.00;;;6.90;;
58784;SDS011;44557;51.862;19.378;2023-08-17T08:24:57;11.50;;;7.70;;
58784;SDS011;44557;51.862;19.378;2023-08-17T08:27:00;10.70;;;7.30;;
58784;SDS011;44557;51.862;19.378;2023-08-17T08:29:05;8.90;;;7.30;;
58784;SDS011;44557;51.862;19.378;2023-08-17T08:31:07;11.30;;;7.40;;
58784;SDS011;44557;51.862;19.378;2023-08-17T08:33:09;8.10;;;6.10;;
58784;SDS011;44557;51.862;19.378;2023-08-17T08:35:11;7.80;;;5.20;;
58784;SDS011;44557;51.862;19.378;2023-08-17T08:37:13;7.40;;;5.30;;
58784;SDS011;44557;51.862;19.378;2023-08-17T08:39:25;8.90;;;5.70;;
58784;SDS011;44557;51.862;19.378;2023-08-17T08:41:29;9.60;;;5.30;;
58784;SDS011;44557;51.862;19.378;2023-08-17T08:43:32;7.80;;;5.40;;
58784;SDS011;44557;51.862;19.378;2023-08-17T08:45:36;8.50;;;5.30;;
58784;SDS011;44557;51.862;19.378;2023-08-17T08:47:40;7.20;;;5.40;;
58784;SDS011;44557;51.862;19.378;2023-08-17T08:49:57;9.90;;;5.50;;
58784;SDS011;44557;51.862;19.378;2023-08-17T08:52:03;8.60;;;6.00;;
58784;SDS011;44557;51.862;19.378;2023-08-17T08:54:11;8.20;;;5.50;;
58784;SDS011;44557;51.862;19.378;2023-08-17T08:56:16;7.30;;;5.40;;
58784;SDS011;44557;51.862;19.378;2023-08-17T08:58:26;7.70;;;5.40;;
58784;SDS011;44557;51.862;19.378;2023-08-17T09:00:33;7.00;;;5.40;;
58784;SDS011;44557;51.862;19.378;2023-08-17T09:02:37;8.30;;;5.60;;
58784;SDS011;44557;51.862;19.378;2023-08-17T09:04:40;9.10;;;5.50;;
58784;SDS011;44557;51.862;19.378;2023-08-17T09:06:43;7.90;;;5.50;;
58784;SDS011;44557;51.862;19.378;2023-08-17T09:08:45;10.80;;;6.10;;
58784;SDS011;44557;51.862;19.378;2023-08-17T09:10:50;9.50;;;6.00;;
58784;SDS011;44557;51.862;19.378;2023-08-17T09:12:52;8.10;;;6.30;;
58784;SDS011;44557;51.862;19.378;2023-08-17T09:14:54;10.10;;;5.90;;
58784;SDS011;44557;51.862;19.378;2023-08-17T09:16:56;10.50;;;6.40;;
58784;SDS011;44557;51.862;19.378;2023-08-17T09:19:00;8.60;;;5.80;;
58784;SDS011;44557;51.862;19.378;2023-08-17T09:21:03;9.60;;;7.40;;
58784;SDS011;44557;51.862;19.378;2023-08-17T09:23:09;12.20;;;7.60;;
58784;SDS011;44557;51.862;19.378;2023-08-17T09:25:21;10.10;;;6.50;;
58784;SDS011;44557;51.862;19.378;2023-08-17T09:27:24;9.60;;;6.80;;
58784;SDS011;44557;51.862;19.378;2023-08-17T09:29:26;9.00;;;6.10;;
58784;SDS011;44557;51.862;19.378;2023-08-17T09:31:27;7.30;;;6.10;;
58784;SDS011;44557;51.862;19.378;2023-08-17T09:33:34;9.50;;;6.10;;
58784;SDS011;44557;51.862;19.378;2023-08-17T09:35:37;10.30;;;6.60;;
58784;SDS011;44557;51.862;19.378;2023-08-17T09:37:38;10.60;;;6.50;;
58784;SDS011;44557;51.862;19.378;2023-08-17T09:39:41;8.80;;;6.20;;
58784;SDS011;44557;51.862;19.378;2023-08-17T09:41:45;10.20;;;7.00;;
58784;SDS011;44557;51.862;19.378;2023-08-17T09:43:47;9.00;;;6.50;;
58784;SDS011;44557;51.862;19.378;2023-08-17T09:45:49;9.00;;;6.70;;
58784;SDS011;44557;51.862;19.378;2023-08-17T09:47:53;13.50;;;6.90;;
58784;SDS011;44557;51.862;19.378;2023-08-17T09:49:55;10.50;;;6.60;;
58784;SDS011;44557;51.862;19.378;2023-08-17T09:52:00;11.40;;;6.60;;
58784;SDS011;44557;51.862;19.378;2023-08-17T09:54:05;9.80;;;6.70;;
58784;SDS011;44557;51.862;19.378;2023-08-17T09:56:07;9.60;;;6.70;;
58784;SDS011;44557;51.862;19.378;2023-08-17T09:58:09;10.40;;;6.60;;
58784;SDS011;44557;51.862;19.378;2023-08-17T10:00:16;11.20;;;7.90;;
58784;SDS011;44557;51.862;19.378;2023-08-17T10:02:20;10.90;;;8.50;;
58784;SDS011;44557;51.862;19.378;2023-08-17T10:04:25;10.90;;;8.40;;
58784;SDS011;44557;51.862;19.378;2023-08-17T10:06:30;9.40;;;8.00;;
58784;SDS011;44557;51.862;19.378;2023-08-17T10:08:47;15.30;;;10.50;;
58784;SDS011;44557;51.862;19.378;2023-08-17T10:10:54;12.40;;;9.90;;
58784;SDS011;44557;51.862;19.378;2023-08-17T10:13:07;13.10;;;10.40;;
58784;SDS011;44557;51.862;19.378;2023-08-17T10:15:11;14.70;;;10.30;;
58784;SDS011;44557;51.862;19.378;2023-08-17T10:17:19;15.50;;;10.10;;
58784;SDS011;44557;51.862;19.378;2023-08-17T10:21:50;16.70;;;10.30;;
58784;SDS011;44557;51.862;19.378;2023-08-17T10:24:00;15.30;;;10.80;;
58784;SDS011;44557;51.862;19.378;2023-08-17T10:26:05;13.90;;;9.80;;
58784;SDS011;44557;51.862;19.378;2023-08-17T10:28:09;15.50;;;10.90;;
58784;SDS011;44557;51.862;19.378;2023-08-17T10:30:12;14.70;;;10.40;;
58784;SDS011;44557;51.862;19.378;2023-08-17T10:32:14;12.70;;;10.50;;
58784;SDS011;44557;51.862;19.378;2023-08-17T10:34:16;11.40;;;9.30;;
58784;SDS011;44557;51.862;19.378;2023-08-17T10:36:17;14.10;;;9.40;;
58784;SDS011;44557;51.862;19.378;2023-08-17T10:38:20;14.80;;;10.40;;
58784;SDS011;44557;51.862;19.378;2023-08-17T10:40:26;14.00;;;10.00;;
58784;SDS011;44557;51.862;19.378;2023-08-17T10:42:30;12.40;;;10.60;;
58784;SDS011;44557;51.862;19.378;2023-08-17T10:44:46;18.00;;;10.80;;
58784;SDS011;44557;51.862;19.378;2023-08-17T10:46:54;16.00;;;10.50;;
58784;SDS011;44557;51.862;19.378;2023-08-17T10:48:56;15.70;;;10.20;;
58784;SDS011;44557;51.862;19.378;2023-08-17T10:51:04;13.90;;;11.10;;
58784;SDS011;44557;51.862;19.378;2023-08-17T10:53:10;14.00;;;10.40;;
58784;SDS011;44557;51.862;19.378;2023-08-17T10:55:13;14.30;;;10.40;;
58784;SDS011;44557;51.862;19.378;2023-08-17T10:59:24;14.50;;;11.00;;
58784;SDS011;44557;51.862;19.378;2023-08-17T11:01:34;13.50;;;11.40;;
58784;SDS011;44557;51.862;19.378;2023-08-17T11:03:37;14.40;;;11.30;;
58784;SDS011;44557;51.862;19.378;2023-08-17T11:05:43;15.70;;;10.60;;
58784;SDS011;44557;51.862;19.378;2023-08-17T11:07:51;12.40;;;10.20;;
58784;SDS011;44557;51.862;19.378;2023-08-17T11:09:53;14.90;;;10.80;;
58784;SDS011;44557;51.862;19.378;2023-08-17T11:11:55;14.70;;;10.90;;
58784;SDS011;44557;51.862;19.378;2023-08-17T11:14:01;14.40;;;11.10;;
58784;SDS011;44557;51.862;19.378;2023-08-17T11:16:04;15.50;;;11.40;;
58784;SDS011;44557;51.862;19.378;2023-08-17T11:18:08;14.60;;;11.00;;
58784;SDS011;44557;51.862;19.378;2023-08-17T11:20:11;14.10;;;11.70;;
58784;SDS011;44557;51.862;19.378;2023-08-17T11:22:15;13.40;;;11.90;;
58784;SDS011;44557;51.862;19.378;2023-08-17T11:24:17;14.00;;;11.60;;
58784;SDS011;44557;51.862;19.378;2023-08-17T11:26:19;14.40;;;10.60;;
58784;SDS011;44557;51.862;19.378;2023-08-17T11:28:21;14.50;;;11.60;;
58784;SDS011;44557;51.862;19.378;2023-08-17T11:30:23;12.30;;;10.10;;
58784;SDS011;44557;51.862;19.378;2023-08-17T11:32:26;15.40;;;12.30;;
58784;SDS011;44557;51.862;19.378;2023-08-17T11:34:28;13.60;;;11.00;;
58784;SDS011;44557;51.862;19.378;2023-08-17T11:36:30;12.60;;;10.60;;
58784;SDS011;44557;51.862;19.378;2023-08-17T11:38:34;14.60;;;11.00;;
58784;SDS011;44557;51.862;19.378;2023-08-17T11:40:40;14.20;;;12.20;;
58784;SDS011;44557;51.862;19.378;2023-08-17T11:42:42;15.50;;;12.00;;
58784;SDS011;44557;51.862;19.378;2023-08-17T11:44:45;12.90;;;11.30;;
58784;SDS011;44557;51.862;19.378;2023-08-17T11:46:47;17.90;;;11.90;;
58784;SDS011;44557;51.862;19.378;2023-08-17T11:48:49;16.40;;;11.80;;
58784;SDS011;44557;51.862;19.378;2023-08-17T11:50:52;14.50;;;12.00;;
58784;SDS011;44557;51.862;19.378;2023-08-17T11:52:54;14.00;;;11.90;;
58784;SDS011;44557;51.862;19.378;2023-08-17T11:54:56;15.20;;;12.10;;
58784;SDS011;44557;51.862;19.378;2023-08-17T11:56:58;13.70;;;11.00;;
58784;SDS011;44557;51.862;19.378;2023-08-17T11:59:07;12.70;;;11.20;;
58784;SDS011;44557;51.862;19.378;2023-08-17T12:01:20;17.40;;;12.60;;
58784;SDS011;44557;51.862;19.378;2023-08-17T12:03:23;12.60;;;11.30;;
58784;SDS011;44557;51.862;19.378;2023-08-17T12:05:26;15.80;;;12.10;;
58784;SDS011;44557;51.862;19.378;2023-08-17T12:07:30;14.10;;;11.90;;
58784;SDS011;44557;51.862;19.378;2023-08-17T12:09:32;15.00;;;11.30;;